sensor_id;sensor_type;location;lat;lon;timestamp;P1;P2;P0
77692;PMS5003;66984;47.404;18.836;2024-03-29T00:00:19;0.00;0.00;0.00
77692;PMS5003;66984;47.404;18.836;2024-03-29T00:01:20;0.00;0.00;0.00
77692;PMS5003;66984;47.404;18.836;2024-03-29T00:02:20;0.00;0.00;0.00
77692;PMS5003;66984;47.404;18.836;2024-03-29T00:03:21;0.00;0.00;0.00
77692;PMS5003;66984;47.404;18.836;2024-03-29T00:04:22;0.00;0.00;0.00
77692;PMS5003;66984;47.404;18.836;2024-03-29T00:05:23;0.00;0.00;0.00
77692;PMS5003;66984;47.404;18.836;2024-03-29T00:06:24;0.00;0.00;0.00
77692;PMS5003;66984;47.404;18.836;2024-03-29T00:07:24;0.00;0.00;0.00
77692;PMS5003;66984;47.404;18.836;2024-03-29T00:08:28;0.00;0.00;0.00
77692;PMS5003;66984;47.404;18.836;2024-03-29T00:09:29;0.00;0.00;0.00
77692;PMS5003;66984;47.404;18.836;2024-03-29T00:10:30;0.00;0.00;0.00
77692;PMS5003;66984;47.404;18.836;2024-03-29T00:11:31;0.00;0.00;0.00
77692;PMS5003;66984;47.404;18.836;2024-03-29T00:12:31;0.00;0.00;0.00
77692;PMS5003;66984;47.404;18.836;2024-03-29T00:13:32;0.00;0.00;0.00
77692;PMS5003;66984;47.404;18.836;2024-03-29T00:14:33;0.00;0.00;0.00
77692;PMS5003;66984;47.404;18.836;2024-03-29T00:15:34;0.00;0.00;0.00
77692;PMS5003;66984;47.404;18.836;2024-03-29T00:16:34;0.00;0.00;0.00
77692;PMS5003;66984;47.404;18.836;2024-03-29T00:17:35;0.00;0.00;0.00
77692;PMS5003;66984;47.404;18.836;2024-03-29T00:18:36;0.00;0.00;0.00
77692;PMS5003;66984;47.404;18.836;2024-03-29T00:19:37;0.00;0.00;0.00
77692;PMS5003;66984;47.404;18.836;2024-03-29T00:20:37;0.00;0.00;0.00
77692;PMS5003;66984;47.404;18.836;2024-03-29T00:21:38;0.00;0.00;0.00
77692;PMS5003;66984;47.404;18.836;2024-03-29T00:22:39;0.00;0.00;0.00
77692;PMS5003;66984;47.404;18.836;2024-03-29T00:23:40;0.00;0.00;0.00
77692;PMS5003;66984;47.404;18.836;2024-03-29T00:24:41;0.00;0.00;0.00
77692;PMS5003;66984;47.404;18.836;2024-03-29T00:25:41;0.00;0.00;0.00
77692;PMS5003;66984;47.404;18.836;2024-03-29T00:26:42;0.00;0.00;0.00
77692;PMS5003;66984;47.404;18.836;2024-03-29T00:27:43;0.00;0.00;0.00
77692;PMS5003;66984;47.404;18.836;2024-03-29T00:28:44;0.00;0.00;0.00
77692;PMS5003;66984;47.404;18.836;2024-03-29T00:29:45;0.00;0.00;0.00
77692;PMS5003;66984;47.404;18.836;2024-03-29T00:30:47;0.00;0.00;0.00
77692;PMS5003;66984;47.404;18.836;2024-03-29T00:31:54;0.00;0.00;0.00
77692;PMS5003;66984;47.404;18.836;2024-03-29T00:32:59;0.00;0.00;0.00
77692;PMS5003;66984;47.404;18.836;2024-03-29T00:34:00;0.00;0.00;0.00
77692;PMS5003;66984;47.404;18.836;2024-03-29T00:35:00;0.00;0.00;0.00
77692;PMS5003;66984;47.404;18.836;2024-03-29T00:36:02;0.00;0.00;0.00
77692;PMS5003;66984;47.404;18.836;2024-03-29T00:37:03;0.00;0.00;0.00
77692;PMS5003;66984;47.404;18.836;2024-03-29T00:38:04;0.00;0.00;0.00
77692;PMS5003;66984;47.404;18.836;2024-03-29T00:39:05;0.00;0.00;0.00
77692;PMS5003;66984;47.404;18.836;2024-03-29T00:40:05;0.00;0.00;0.00
77692;PMS5003;66984;47.404;18.836;2024-03-29T00:41:07;0.00;0.00;0.00
77692;PMS5003;66984;47.404;18.836;2024-03-29T00:42:08;0.00;0.00;0.00
77692;PMS5003;66984;47.404;18.836;2024-03-29T00:43:09;0.00;0.00;0.00
77692;PMS5003;66984;47.404;18.836;2024-03-29T00:44:10;0.00;0.00;0.00
77692;PMS5003;66984;47.404;18.836;2024-03-29T00:45:11;0.00;0.00;0.00
77692;PMS5003;66984;47.404;18.836;2024-03-29T00:46:11;0.00;0.00;0.00
77692;PMS5003;66984;47.404;18.836;2024-03-29T00:47:12;0.00;0.00;0.00
77692;PMS5003;66984;47.404;18.836;2024-03-29T00:48:17;0.00;0.00;0.00
77692;PMS5003;66984;47.404;18.836;2024-03-29T00:49:20;0.00;0.00;0.00
77692;PMS5003;66984;47.404;18.836;2024-03-29T00:50:20;0.00;0.00;0.00
77692;PMS5003;66984;47.404;18.836;2024-03-29T00:51:21;0.00;0.00;0.00
77692;PMS5003;66984;47.404;18.836;2024-03-29T00:52:22;0.00;0.00;0.00
77692;PMS5003;66984;47.404;18.836;2024-03-29T00:53:23;0.00;0.00;0.00
77692;PMS5003;66984;47.404;18.836;2024-03-29T00:54:23;0.00;0.00;0.00
77692;PMS5003;66984;47.404;18.836;2024-03-29T00:55:24;0.00;0.00;0.00
77692;PMS5003;66984;47.404;18.836;2024-03-29T00:56:25;0.00;0.00;0.00
77692;PMS5003;66984;47.404;18.836;2024-03-29T00:57:26;0.00;0.00;0.00
77692;PMS5003;66984;47.404;18.836;2024-03-29T00:58:26;0.00;0.00;0.00
77692;PMS5003;66984;47.404;18.836;2024-03-29T00:59:28;0.00;0.00;0.00
77692;PMS5003;66984;47.404;18.836;2024-03-29T01:00:29;0.00;0.00;0.00
77692;PMS5003;66984;47.404;18.836;2024-03-29T01:01:29;0.00;0.00;0.00
77692;PMS5003;66984;47.404;18.836;2024-03-29T01:02:30;0.00;0.00;0.00
77692;PMS5003;66984;47.404;18.836;2024-03-29T01:03:31;0.00;0.00;0.00
77692;PMS5003;66984;47.404;18.836;2024-03-29T01:04:32;0.00;0.00;0.00
77692;PMS5003;66984;47.404;18.836;2024-03-29T01:05:32;0.00;0.00;0.00
77692;PMS5003;66984;47.404;18.836;2024-03-29T01:06:33;0.00;0.00;0.00
77692;PMS5003;66984;47.404;18.836;2024-03-29T01:07:34;0.00;0.00;0.00
77692;PMS5003;66984;47.404;18.836;2024-03-29T01:08:35;0.00;0.00;0.00
77692;PMS5003;66984;47.404;18.836;2024-03-29T01:09:35;0.00;0.00;0.00
77692;PMS5003;66984;47.404;18.836;2024-03-29T01:10:36;0.00;0.00;0.00
77692;PMS5003;66984;47.404;18.836;2024-03-29T01:11:37;0.00;0.00;0.00
77692;PMS5003;66984;47.404;18.836;2024-03-29T01:12:39;0.00;0.00;0.00
77692;PMS5003;66984;47.404;18.836;2024-03-29T01:13:39;0.00;0.00;0.00
77692;PMS5003;66984;47.404;18.836;2024-03-29T01:14:40;0.00;0.00;0.00
77692;PMS5003;66984;47.404;18.836;2024-03-29T01:15:41;0.00;0.00;0.00
77692;PMS5003;66984;47.404;18.836;2024-03-29T01:16:42;0.00;0.00;0.00
77692;PMS5003;66984;47.404;18.836;2024-03-29T01:17:42;0.00;0.00;0.00
77692;PMS5003;66984;47.404;18.836;2024-03-29T01:18:43;0.00;0.00;0.00
77692;PMS5003;66984;47.404;18.836;2024-03-29T01:19:44;0.00;0.00;0.00
77692;PMS5003;66984;47.404;18.836;2024-03-29T01:20:45;0.00;0.00;0.00
77692;PMS5003;66984;47.404;18.836;2024-03-29T01:21:45;0.00;0.00;0.00
77692;PMS5003;66984;47.404;18.836;2024-03-29T01:22:46;0.00;0.00;0.00
77692;PMS5003;66984;47.404;18.836;2024-03-29T01:23:47;0.00;0.00;0.00
77692;PMS5003;66984;47.404;18.836;2024-03-29T01:24:49;0.00;0.00;0.00
77692;PMS5003;66984;47.404;18.836;2024-03-29T01:25:50;0.00;0.00;0.00
77692;PMS5003;66984;47.404;18.836;2024-03-29T01:26:51;0.00;0.00;0.00
77692;PMS5003;66984;47.404;18.836;2024-03-29T01:27:52;0.00;0.00;0.00
77692;PMS5003;66984;47.404;18.836;2024-03-29T01:28:53;0.00;0.00;0.00
77692;PMS5003;66984;47.404;18.836;2024-03-29T01:29:54;0.00;0.00;0.00
77692;PMS5003;66984;47.404;18.836;2024-03-29T01:30:54;0.00;0.00;0.00
77692;PMS5003;66984;47.404;18.836;2024-03-29T01:31:55;0.00;0.00;0.00
77692;PMS5003;66984;47.404;18.836;2024-03-29T01:32:56;0.00;0.00;0.00
77692;PMS5003;66984;47.404;18.836;2024-03-29T01:33:57;0.00;0.00;0.00
77692;PMS5003;66984;47.404;18.836;2024-03-29T01:34:58;0.00;0.00;0.00
77692;PMS5003;66984;47.404;18.836;2024-03-29T01:35:59;0.00;0.00;0.00
77692;PMS5003;66984;47.404;18.836;2024-03-29T01:37:00;0.00;0.00;0.00
77692;PMS5003;66984;47.404;18.836;2024-03-29T01:38:01;0.00;0.00;0.00
77692;PMS5003;66984;47.404;18.836;2024-03-29T01:39:01;0.00;0.00;0.00
77692;PMS5003;66984;47.404;18.836;2024-03-29T01:40:02;0.00;0.00;0.00
77692;PMS5003;66984;47.404;18.836;2024-03-29T01:41:03;0.00;0.00;0.00
77692;PMS5003;66984;47.404;18.836;2024-03-29T01:42:04;0.00;0.00;0.00
77692;PMS5003;66984;47.404;18.836;2024-03-29T01:43:05;0.00;0.00;0.00
77692;PMS5003;66984;47.404;18.836;2024-03-29T01:44:07;0.00;0.00;0.00
77692;PMS5003;66984;47.404;18.836;2024-03-29T01:45:10;0.00;0.00;0.00
77692;PMS5003;66984;47.404;18.836;2024-03-29T01:46:11;0.00;0.00;0.00
77692;PMS5003;66984;47.404;18.836;2024-03-29T01:47:12;0.00;0.00;0.00
77692;PMS5003;66984;47.404;18.836;2024-03-29T01:48:15;0.00;0.00;0.00
77692;PMS5003;66984;47.404;18.836;2024-03-29T01:49:17;0.00;0.00;0.00
77692;PMS5003;66984;47.404;18.836;2024-03-29T01:50:18;0.00;0.00;0.00
77692;PMS5003;66984;47.404;18.836;2024-03-29T01:51:19;0.00;0.00;0.00
77692;PMS5003;66984;47.404;18.836;2024-03-29T01:52:27;0.00;0.00;0.00
77692;PMS5003;66984;47.404;18.836;2024-03-29T01:53:29;0.00;0.00;0.00
77692;PMS5003;66984;47.404;18.836;2024-03-29T01:54:30;0.00;0.00;0.00
77692;PMS5003;66984;47.404;18.836;2024-03-29T01:55:31;0.00;0.00;0.00
77692;PMS5003;66984;47.404;18.836;2024-03-29T01:56:32;0.00;0.00;0.00
77692;PMS5003;66984;47.404;18.836;2024-03-29T01:57:33;0.00;0.00;0.00
77692;PMS5003;66984;47.404;18.836;2024-03-29T01:58:34;0.00;0.00;0.00
77692;PMS5003;66984;47.404;18.836;2024-03-29T01:59:35;0.00;0.00;0.00
77692;PMS5003;66984;47.404;18.836;2024-03-29T02:00:53;0.00;0.00;0.00
77692;PMS5003;66984;47.404;18.836;2024-03-29T02:01:55;0.00;0.00;0.00
77692;PMS5003;66984;47.404;18.836;2024-03-29T02:02:56;0.00;0.00;0.00
77692;PMS5003;66984;47.404;18.836;2024-03-29T02:03:57;0.00;0.00;0.00
77692;PMS5003;66984;47.404;18.836;2024-03-29T02:04:58;0.00;0.00;0.00
77692;PMS5003;66984;47.404;18.836;2024-03-29T02:05:59;0.00;0.00;0.00
77692;PMS5003;66984;47.404;18.836;2024-03-29T02:07:02;0.00;0.00;0.00
77692;PMS5003;66984;47.404;18.836;2024-03-29T02:08:04;0.00;0.00;0.00
77692;PMS5003;66984;47.404;18.836;2024-03-29T02:09:05;0.00;0.00;0.00
77692;PMS5003;66984;47.404;18.836;2024-03-29T02:10:06;0.00;0.00;0.00
77692;PMS5003;66984;47.404;18.836;2024-03-29T02:11:10;0.00;0.00;0.00
77692;PMS5003;66984;47.404;18.836;2024-03-29T02:12:11;0.00;0.00;0.00
77692;PMS5003;66984;47.404;18.836;2024-03-29T02:13:12;0.00;0.00;0.00
77692;PMS5003;66984;47.404;18.836;2024-03-29T02:14:13;0.00;0.00;0.00
77692;PMS5003;66984;47.404;18.836;2024-03-29T02:15:14;0.00;0.00;0.00
77692;PMS5003;66984;47.404;18.836;2024-03-29T02:16:17;0.00;0.00;0.00
77692;PMS5003;66984;47.404;18.836;2024-03-29T02:17:17;0.00;0.00;0.00
77692;PMS5003;66984;47.404;18.836;2024-03-29T02:18:18;0.00;0.00;0.00
77692;PMS5003;66984;47.404;18.836;2024-03-29T02:19:19;0.00;0.00;0.00
77692;PMS5003;66984;47.404;18.836;2024-03-29T02:20:19;0.00;0.00;0.00
77692;PMS5003;66984;47.404;18.836;2024-03-29T02:21:20;0.00;0.00;0.00
77692;PMS5003;66984;47.404;18.836;2024-03-29T02:22:21;0.00;0.00;0.00
77692;PMS5003;66984;47.404;18.836;2024-03-29T02:23:26;0.00;0.00;0.00
77692;PMS5003;66984;47.404;18.836;2024-03-29T02:24:28;0.00;0.00;0.00
77692;PMS5003;66984;47.404;18.836;2024-03-29T02:25:29;0.00;0.00;0.00
77692;PMS5003;66984;47.404;18.836;2024-03-29T02:26:30;0.00;0.00;0.00
77692;PMS5003;66984;47.404;18.836;2024-03-29T02:27:33;0.00;0.00;0.00
77692;PMS5003;66984;47.404;18.836;2024-03-29T02:28:34;0.00;0.00;0.00
77692;PMS5003;66984;47.404;18.836;2024-03-29T02:29:35;0.00;0.00;0.00
77692;PMS5003;66984;47.404;18.836;2024-03-29T02:30:36;0.00;0.00;0.00
77692;PMS5003;66984;47.404;18.836;2024-03-29T02:31:37;0.00;0.00;0.00
77692;PMS5003;66984;47.404;18.836;2024-03-29T02:32:38;0.00;0.00;0.00
77692;PMS5003;66984;47.404;18.836;2024-03-29T02:33:38;0.00;0.00;0.00
77692;PMS5003;66984;47.404;18.836;2024-03-29T02:34:39;0.00;0.00;0.00
77692;PMS5003;66984;47.404;18.836;2024-03-29T02:35:40;0.00;0.00;0.00
77692;PMS5003;66984;47.404;18.836;2024-03-29T02:36:40;0.00;0.00;0.00
77692;PMS5003;66984;47.404;18.836;2024-03-29T02:37:44;0.00;0.00;0.00
77692;PMS5003;66984;47.404;18.836;2024-03-29T02:38:45;0.00;0.00;0.00
77692;PMS5003;66984;47.404;18.836;2024-03-29T02:39:45;0.00;0.00;0.00
77692;PMS5003;66984;47.404;18.836;2024-03-29T02:40:46;0.00;0.00;0.00
77692;PMS5003;66984;47.404;18.836;2024-03-29T02:41:47;0.00;0.00;0.00
77692;PMS5003;66984;47.404;18.836;2024-03-29T02:42:48;0.00;0.00;0.00
77692;PMS5003;66984;47.404;18.836;2024-03-29T02:43:49;0.00;0.00;0.00
77692;PMS5003;66984;47.404;18.836;2024-03-29T02:44:50;0.00;0.00;0.00
77692;PMS5003;66984;47.404;18.836;2024-03-29T02:45:51;0.00;0.00;0.00
77692;PMS5003;66984;47.404;18.836;2024-03-29T02:46:52;0.00;0.00;0.00
77692;PMS5003;66984;47.404;18.836;2024-03-29T02:47:52;0.00;0.00;0.00
77692;PMS5003;66984;47.404;18.836;2024-03-29T02:48:53;0.00;0.00;0.00
77692;PMS5003;66984;47.404;18.836;2024-03-29T02:49:54;0.00;0.00;0.00
77692;PMS5003;66984;47.404;18.836;2024-03-29T02:50:55;0.00;0.00;0.00
77692;PMS5003;66984;47.404;18.836;2024-03-29T02:51:56;0.00;0.00;0.00
77692;PMS5003;66984;47.404;18.836;2024-03-29T02:52:56;0.00;0.00;0.00
77692;PMS5003;66984;47.404;18.836;2024-03-29T02:53:57;0.00;0.00;0.00
77692;PMS5003;66984;47.404;18.836;2024-03-29T02:54:58;0.00;0.00;0.00
77692;PMS5003;66984;47.404;18.836;2024-03-29T02:55:59;0.00;0.00;0.00
77692;PMS5003;66984;47.404;18.836;2024-03-29T02:56:59;0.00;0.00;0.00
77692;PMS5003;66984;47.404;18.836;2024-03-29T02:58:00;0.00;0.00;0.00
77692;PMS5003;66984;47.404;18.836;2024-03-29T02:59:02;0.00;0.00;0.00
77692;PMS5003;66984;47.404;18.836;2024-03-29T03:00:04;0.00;0.00;0.00
77692;PMS5003;66984;47.404;18.836;2024-03-29T03:01:06;0.00;0.00;0.00
77692;PMS5003;66984;47.404;18.836;2024-03-29T03:02:08;0.00;0.00;0.00
77692;PMS5003;66984;47.404;18.836;2024-03-29T03:03:09;0.00;0.00;0.00
77692;PMS5003;66984;47.404;18.836;2024-03-29T03:04:10;0.00;0.00;0.00
77692;PMS5003;66984;47.404;18.836;2024-03-29T03:05:11;0.00;0.00;0.00
77692;PMS5003;66984;47.404;18.836;2024-03-29T03:06:11;0.00;0.00;0.00
77692;PMS5003;66984;47.404;18.836;2024-03-29T03:07:12;0.00;0.00;0.00
77692;PMS5003;66984;47.404;18.836;2024-03-29T03:08:31;0.00;0.00;0.00
77692;PMS5003;66984;47.404;18.836;2024-03-29T03:09:50;0.00;0.00;0.00
77692;PMS5003;66984;47.404;18.836;2024-03-29T03:11:10;0.00;0.00;0.00
77692;PMS5003;66984;47.404;18.836;2024-03-29T03:12:10;0.00;0.00;0.00
77692;PMS5003;66984;47.404;18.836;2024-03-29T03:13:11;0.00;0.00;0.00
77692;PMS5003;66984;47.404;18.836;2024-03-29T03:14:12;0.00;0.00;0.00
77692;PMS5003;66984;47.404;18.836;2024-03-29T03:15:13;0.00;0.00;0.00
77692;PMS5003;66984;47.404;18.836;2024-03-29T03:16:13;0.00;0.00;0.00
77692;PMS5003;66984;47.404;18.836;2024-03-29T03:17:14;0.00;0.00;0.00
77692;PMS5003;66984;47.404;18.836;2024-03-29T03:18:15;0.00;0.00;0.00
77692;PMS5003;66984;47.404;18.836;2024-03-29T03:19:16;0.00;0.00;0.00
77692;PMS5003;66984;47.404;18.836;2024-03-29T03:20:16;0.00;0.00;0.00
77692;PMS5003;66984;47.404;18.836;2024-03-29T03:21:17;0.00;0.00;0.00
77692;PMS5003;66984;47.404;18.836;2024-03-29T03:22:18;0.00;0.00;0.00
77692;PMS5003;66984;47.404;18.836;2024-03-29T03:23:19;0.00;0.00;0.00
77692;PMS5003;66984;47.404;18.836;2024-03-29T03:24:20;0.00;0.00;0.00
77692;PMS5003;66984;47.404;18.836;2024-03-29T03:25:21;0.00;0.00;0.00
77692;PMS5003;66984;47.404;18.836;2024-03-29T03:26:21;0.00;0.00;0.00
77692;PMS5003;66984;47.404;18.836;2024-03-29T03:27:22;0.00;0.00;0.00
77692;PMS5003;66984;47.404;18.836;2024-03-29T03:28:24;0.00;0.00;0.00
77692;PMS5003;66984;47.404;18.836;2024-03-29T03:29:25;0.00;0.00;0.00
77692;PMS5003;66984;47.404;18.836;2024-03-29T03:30:26;0.00;0.00;0.00
77692;PMS5003;66984;47.404;18.836;2024-03-29T03:31:27;0.00;0.00;0.00
77692;PMS5003;66984;47.404;18.836;2024-03-29T03:32:28;0.00;0.00;0.00
77692;PMS5003;66984;47.404;18.836;2024-03-29T03:33:29;0.00;0.00;0.00
77692;PMS5003;66984;47.404;18.836;2024-03-29T03:34:29;0.00;0.00;0.00
77692;PMS5003;66984;47.404;18.836;2024-03-29T03:35:30;0.00;0.00;0.00
77692;PMS5003;66984;47.404;18.836;2024-03-29T03:36:31;0.00;0.00;0.00
77692;PMS5003;66984;47.404;18.836;2024-03-29T03:37:32;3.25;3.00;0.00
77692;PMS5003;66984;47.404;18.836;2024-03-29T03:38:33;3.00;3.00;0.00
77692;PMS5003;66984;47.404;18.836;2024-03-29T03:39:35;0.50;0.50;0.00
77692;PMS5003;66984;47.404;18.836;2024-03-29T03:40:36;0.00;0.00;0.00
77692;PMS5003;66984;47.404;18.836;2024-03-29T03:41:37;0.00;0.00;0.00
77692;PMS5003;66984;47.404;18.836;2024-03-29T03:42:38;0.00;0.00;0.00
77692;PMS5003;66984;47.404;18.836;2024-03-29T03:43:39;0.00;0.00;0.00
77692;PMS5003;66984;47.404;18.836;2024-03-29T03:44:39;0.00;0.00;0.00
77692;PMS5003;66984;47.404;18.836;2024-03-29T03:45:40;2.00;1.00;0.00
77692;PMS5003;66984;47.404;18.836;2024-03-29T03:46:41;4.00;4.00;0.00
77692;PMS5003;66984;47.404;18.836;2024-03-29T03:47:42;4.00;3.00;1.00
77692;PMS5003;66984;47.404;18.836;2024-03-29T03:48:43;4.00;4.00;1.00
77692;PMS5003;66984;47.404;18.836;2024-03-29T03:49:43;3.33;3.00;1.00
77692;PMS5003;66984;47.404;18.836;2024-03-29T03:50:44;2.00;2.00;1.00
77692;PMS5003;66984;47.404;18.836;2024-03-29T03:51:45;1.00;0.00;0.00
77692;PMS5003;66984;47.404;18.836;2024-03-29T03:52:46;0.00;0.00;0.00
77692;PMS5003;66984;47.404;18.836;2024-03-29T03:53:46;0.00;0.00;0.00
77692;PMS5003;66984;47.404;18.836;2024-03-29T03:54:47;0.00;0.00;0.00
77692;PMS5003;66984;47.404;18.836;2024-03-29T03:55:48;0.00;0.00;0.00
77692;PMS5003;66984;47.404;18.836;2024-03-29T03:56:49;0.00;0.00;0.00
77692;PMS5003;66984;47.404;18.836;2024-03-29T03:57:50;0.00;0.00;0.00
77692;PMS5003;66984;47.404;18.836;2024-03-29T03:58:51;0.00;0.00;0.00
77692;PMS5003;66984;47.404;18.836;2024-03-29T03:59:51;0.00;0.00;0.00
77692;PMS5003;66984;47.404;18.836;2024-03-29T04:00:52;1.33;0.67;0.00
77692;PMS5003;66984;47.404;18.836;2024-03-29T04:01:53;4.33;4.00;0.00
77692;PMS5003;66984;47.404;18.836;2024-03-29T04:02:54;9.50;8.00;2.75
77692;PMS5003;66984;47.404;18.836;2024-03-29T04:03:57;15.00;12.75;5.25
77692;PMS5003;66984;47.404;18.836;2024-03-29T04:04:57;16.00;14.00;4.67
77692;PMS5003;66984;47.404;18.836;2024-03-29T04:05:58;9.67;8.33;2.00
77692;PMS5003;66984;47.404;18.836;2024-03-29T04:07:03;0.50;0.50;0.00
77692;PMS5003;66984;47.404;18.836;2024-03-29T04:08:05;0.00;0.00;0.00
77692;PMS5003;66984;47.404;18.836;2024-03-29T04:09:06;0.00;0.00;0.00
77692;PMS5003;66984;47.404;18.836;2024-03-29T04:10:09;0.00;0.00;0.00
77692;PMS5003;66984;47.404;18.836;2024-03-29T04:11:10;0.00;0.00;0.00
77692;PMS5003;66984;47.404;18.836;2024-03-29T04:12:10;0.00;0.00;0.00
77692;PMS5003;66984;47.404;18.836;2024-03-29T04:13:11;0.00;0.00;0.00
77692;PMS5003;66984;47.404;18.836;2024-03-29T04:14:12;0.00;0.00;0.00
77692;PMS5003;66984;47.404;18.836;2024-03-29T04:15:13;0.00;0.00;0.00
77692;PMS5003;66984;47.404;18.836;2024-03-29T04:16:13;2.25;2.25;0.00
77692;PMS5003;66984;47.404;18.836;2024-03-29T04:17:14;8.00;8.00;2.00
77692;PMS5003;66984;47.404;18.836;2024-03-29T04:18:15;10.00;8.00;4.00
77692;PMS5003;66984;47.404;18.836;2024-03-29T04:19:16;7.33;6.67;3.00
77692;PMS5003;66984;47.404;18.836;2024-03-29T04:20:16;2.00;2.00;1.00
77692;PMS5003;66984;47.404;18.836;2024-03-29T04:21:17;2.00;2.00;0.00
77692;PMS5003;66984;47.404;18.836;2024-03-29T04:22:18;0.00;0.00;0.00
77692;PMS5003;66984;47.404;18.836;2024-03-29T04:23:18;0.00;0.00;0.00
77692;PMS5003;66984;47.404;18.836;2024-03-29T04:24:19;0.00;0.00;0.00
77692;PMS5003;66984;47.404;18.836;2024-03-29T04:25:20;0.00;0.00;0.00
77692;PMS5003;66984;47.404;18.836;2024-03-29T04:26:22;0.00;0.00;0.00
77692;PMS5003;66984;47.404;18.836;2024-03-29T04:27:22;0.00;0.00;0.00
77692;PMS5003;66984;47.404;18.836;2024-03-29T04:28:23;0.00;0.00;0.00
77692;PMS5003;66984;47.404;18.836;2024-03-29T04:29:25;1.00;1.00;0.00
77692;PMS5003;66984;47.404;18.836;2024-03-29T04:30:25;1.00;1.00;0.00
77692;PMS5003;66984;47.404;18.836;2024-03-29T04:31:29;3.00;1.00;0.00
77692;PMS5003;66984;47.404;18.836;2024-03-29T04:32:30;4.00;3.00;0.00
77692;PMS5003;66984;47.404;18.836;2024-03-29T04:33:30;4.00;4.00;0.00
77692;PMS5003;66984;47.404;18.836;2024-03-29T04:34:31;3.00;2.00;0.00
77692;PMS5003;66984;47.404;18.836;2024-03-29T04:35:32;2.00;2.00;0.00
77692;PMS5003;66984;47.404;18.836;2024-03-29T04:36:32;2.00;2.00;0.00
77692;PMS5003;66984;47.404;18.836;2024-03-29T04:37:33;1.00;0.00;0.00
77692;PMS5003;66984;47.404;18.836;2024-03-29T04:38:34;2.00;1.00;0.00
77692;PMS5003;66984;47.404;18.836;2024-03-29T04:39:35;4.75;4.50;0.00
77692;PMS5003;66984;47.404;18.836;2024-03-29T04:40:36;5.00;5.00;0.00
77692;PMS5003;66984;47.404;18.836;2024-03-29T04:41:36;7.67;7.00;1.00
77692;PMS5003;66984;47.404;18.836;2024-03-29T04:42:37;6.00;6.00;3.00
77692;PMS5003;66984;47.404;18.836;2024-03-29T04:43:39;4.00;4.00;3.00
77692;PMS5003;66984;47.404;18.836;2024-03-29T04:44:40;3.25;3.25;2.00
77692;PMS5003;66984;47.404;18.836;2024-03-29T04:45:42;1.00;1.00;0.00
77692;PMS5003;66984;47.404;18.836;2024-03-29T04:46:44;0.00;0.00;0.00
77692;PMS5003;66984;47.404;18.836;2024-03-29T04:47:45;4.00;4.00;0.00
77692;PMS5003;66984;47.404;18.836;2024-03-29T04:48:45;5.00;5.00;1.00
77692;PMS5003;66984;47.404;18.836;2024-03-29T04:49:46;4.33;4.00;1.00
77692;PMS5003;66984;47.404;18.836;2024-03-29T04:50:47;3.33;3.33;1.00
77692;PMS5003;66984;47.404;18.836;2024-03-29T04:51:48;3.00;3.00;1.00
77692;PMS5003;66984;47.404;18.836;2024-03-29T04:52:50;2.00;1.00;0.00
77692;PMS5003;66984;47.404;18.836;2024-03-29T04:53:50;2.00;2.00;0.00
77692;PMS5003;66984;47.404;18.836;2024-03-29T04:54:51;0.00;0.00;0.00
77692;PMS5003;66984;47.404;18.836;2024-03-29T04:55:55;0.00;0.00;0.00
77692;PMS5003;66984;47.404;18.836;2024-03-29T04:56:59;0.00;0.00;0.00
77692;PMS5003;66984;47.404;18.836;2024-03-29T04:58:06;0.00;0.00;0.00
77692;PMS5003;66984;47.404;18.836;2024-03-29T04:59:08;0.00;0.00;0.00
77692;PMS5003;66984;47.404;18.836;2024-03-29T05:00:10;1.75;0.75;0.00
77692;PMS5003;66984;47.404;18.836;2024-03-29T05:01:11;4.00;3.00;0.00
77692;PMS5003;66984;47.404;18.836;2024-03-29T05:02:12;3.00;3.00;0.00
77692;PMS5003;66984;47.404;18.836;2024-03-29T05:03:13;1.00;1.00;0.00
77692;PMS5003;66984;47.404;18.836;2024-03-29T05:04:14;1.00;1.00;0.00
77692;PMS5003;66984;47.404;18.836;2024-03-29T05:05:17;1.00;1.00;0.00
77692;PMS5003;66984;47.404;18.836;2024-03-29T05:06:18;0.00;0.00;0.00
77692;PMS5003;66984;47.404;18.836;2024-03-29T05:07:19;0.00;0.00;0.00
77692;PMS5003;66984;47.404;18.836;2024-03-29T05:08:19;0.00;0.00;0.00
77692;PMS5003;66984;47.404;18.836;2024-03-29T05:09:23;0.00;0.00;0.00
77692;PMS5003;66984;47.404;18.836;2024-03-29T05:10:25;0.00;0.00;0.00
77692;PMS5003;66984;47.404;18.836;2024-03-29T05:11:25;0.00;0.00;0.00
77692;PMS5003;66984;47.404;18.836;2024-03-29T05:12:26;0.00;0.00;0.00
77692;PMS5003;66984;47.404;18.836;2024-03-29T05:13:27;0.00;0.00;0.00
77692;PMS5003;66984;47.404;18.836;2024-03-29T05:14:28;0.00;0.00;0.00
77692;PMS5003;66984;47.404;18.836;2024-03-29T05:15:28;0.00;0.00;0.00
77692;PMS5003;66984;47.404;18.836;2024-03-29T05:16:29;0.00;0.00;0.00
77692;PMS5003;66984;47.404;18.836;2024-03-29T05:17:30;0.00;0.00;0.00
77692;PMS5003;66984;47.404;18.836;2024-03-29T05:18:31;0.00;0.00;0.00
77692;PMS5003;66984;47.404;18.836;2024-03-29T05:19:31;0.00;0.00;0.00
77692;PMS5003;66984;47.404;18.836;2024-03-29T05:20:32;0.00;0.00;0.00
77692;PMS5003;66984;47.404;18.836;2024-03-29T05:21:33;0.00;0.00;0.00
77692;PMS5003;66984;47.404;18.836;2024-03-29T05:22:34;0.00;0.00;0.00
77692;PMS5003;66984;47.404;18.836;2024-03-29T05:23:35;0.00;0.00;0.00
77692;PMS5003;66984;47.404;18.836;2024-03-29T05:24:36;0.00;0.00;0.00
77692;PMS5003;66984;47.404;18.836;2024-03-29T05:25:37;0.00;0.00;0.00
77692;PMS5003;66984;47.404;18.836;2024-03-29T05:26:38;0.00;0.00;0.00
77692;PMS5003;66984;47.404;18.836;2024-03-29T05:27:38;0.00;0.00;0.00
77692;PMS5003;66984;47.404;18.836;2024-03-29T05:28:39;0.00;0.00;0.00
77692;PMS5003;66984;47.404;18.836;2024-03-29T05:29:40;0.00;0.00;0.00
77692;PMS5003;66984;47.404;18.836;2024-03-29T05:30:40;0.00;0.00;0.00
77692;PMS5003;66984;47.404;18.836;2024-03-29T05:31:41;0.00;0.00;0.00
77692;PMS5003;66984;47.404;18.836;2024-03-29T05:32:43;0.00;0.00;0.00
77692;PMS5003;66984;47.404;18.836;2024-03-29T05:33:45;0.00;0.00;0.00
77692;PMS5003;66984;47.404;18.836;2024-03-29T05:34:46;0.00;0.00;0.00
77692;PMS5003;66984;47.404;18.836;2024-03-29T05:35:47;0.00;0.00;0.00
77692;PMS5003;66984;47.404;18.836;2024-03-29T05:36:47;0.00;0.00;0.00
77692;PMS5003;66984;47.404;18.836;2024-03-29T05:37:48;0.00;0.00;0.00
77692;PMS5003;66984;47.404;18.836;2024-03-29T05:38:51;0.00;0.00;0.00
77692;PMS5003;66984;47.404;18.836;2024-03-29T05:39:52;0.00;0.00;0.00
77692;PMS5003;66984;47.404;18.836;2024-03-29T05:40:59;0.00;0.00;0.00
77692;PMS5003;66984;47.404;18.836;2024-03-29T05:42:00;0.00;0.00;0.00
77692;PMS5003;66984;47.404;18.836;2024-03-29T05:43:00;0.00;0.00;0.00
77692;PMS5003;66984;47.404;18.836;2024-03-29T05:44:01;0.00;0.00;0.00
77692;PMS5003;66984;47.404;18.836;2024-03-29T05:45:04;0.00;0.00;0.00
77692;PMS5003;66984;47.404;18.836;2024-03-29T05:46:06;0.00;0.00;0.00
77692;PMS5003;66984;47.404;18.836;2024-03-29T05:47:06;0.00;0.00;0.00
77692;PMS5003;66984;47.404;18.836;2024-03-29T05:48:07;0.00;0.00;0.00
77692;PMS5003;66984;47.404;18.836;2024-03-29T05:49:08;0.00;0.00;0.00
77692;PMS5003;66984;47.404;18.836;2024-03-29T05:50:08;0.00;0.00;0.00
77692;PMS5003;66984;47.404;18.836;2024-03-29T05:51:09;0.00;0.00;0.00
77692;PMS5003;66984;47.404;18.836;2024-03-29T05:52:10;0.00;0.00;0.00
77692;PMS5003;66984;47.404;18.836;2024-03-29T05:53:14;0.00;0.00;0.00